sensor_id;sensor_type;location;lat;lon;timestamp;P1;durP1;ratioP1;P2;durP2;ratioP2
36445;SDS011;22472;50.848;-1.216;2024-03-22T00:02:23;27.90;;;17.58;;
36445;SDS011;22472;50.848;-1.216;2024-03-22T00:04:49;32.58;;;17.48;;
36445;SDS011;22472;50.848;-1.216;2024-03-22T00:07:18;31.50;;;16.75;;
36445;SDS011;22472;50.848;-1.216;2024-03-22T00:09:44;31.95;;;16.67;;
36445;SDS011;22472;50.848;-1.216;2024-03-22T00:12:11;31.70;;;17.13;;
36445;SDS011;22472;50.848;-1.216;2024-03-22T00:14:37;31.65;;;16.98;;
36445;SDS011;22472;50.848;-1.216;2024-03-22T00:17:04;36.17;;;17.10;;
36445;SDS011;22472;50.848;-1.216;2024-03-22T00:19:31;31.00;;;15.80;;
36445;SDS011;22472;50.848;-1.216;2024-03-22T00:21:58;34.78;;;18.23;;
36445;SDS011;22472;50.848;-1.216;2024-03-22T00:24:25;32.10;;;17.98;;
36445;SDS011;22472;50.848;-1.216;2024-03-22T00:26:53;30.83;;;16.65;;
36445;SDS011;22472;50.848;-1.216;2024-03-22T00:29:19;32.22;;;17.92;;
36445;SDS011;22472;50.848;-1.216;2024-03-22T00:31:46;35.38;;;17.90;;
36445;SDS011;22472;50.848;-1.216;2024-03-22T00:34:12;28.90;;;16.90;;
36445;SDS011;22472;50.848;-1.216;2024-03-22T00:36:40;44.53;;;18.67;;
36445;SDS011;22472;50.848;-1.216;2024-03-22T00:39:06;33.72;;;17.45;;
36445;SDS011;22472;50.848;-1.216;2024-03-22T00:41:34;35.65;;;17.92;;
36445;SDS011;22472;50.848;-1.216;2024-03-22T00:44:01;30.83;;;18.88;;
36445;SDS011;22472;50.848;-1.216;2024-03-22T00:46:28;34.80;;;20.17;;
36445;SDS011;22472;50.848;-1.216;2024-03-22T00:48:54;38.25;;;18.88;;
36445;SDS011;22472;50.848;-1.216;2024-03-22T00:51:21;34.35;;;19.45;;
36445;SDS011;22472;50.848;-1.216;2024-03-22T00:53:47;36.58;;;19.23;;
36445;SDS011;22472;50.848;-1.216;2024-03-22T00:56:15;37.25;;;19.02;;
36445;SDS011;22472;50.848;-1.216;2024-03-22T00:58:42;33.00;;;17.83;;
36445;SDS011;22472;50.848;-1.216;2024-03-22T01:01:09;31.35;;;18.08;;
36445;SDS011;22472;50.848;-1.216;2024-03-22T01:03:36;30.38;;;18.13;;
36445;SDS011;22472;50.848;-1.216;2024-03-22T01:06:03;38.05;;;17.75;;
36445;SDS011;22472;50.848;-1.216;2024-03-22T01:08:29;31.42;;;17.52;;
36445;SDS011;22472;50.848;-1.216;2024-03-22T01:10:57;38.58;;;18.52;;
36445;SDS011;22472;50.848;-1.216;2024-03-22T01:13:23;36.38;;;18.30;;
36445;SDS011;22472;50.848;-1.216;2024-03-22T01:15:51;33.17;;;17.42;;
36445;SDS011;22472;50.848;-1.216;2024-03-22T01:18:18;35.72;;;17.77;;
36445;SDS011;22472;50.848;-1.216;2024-03-22T01:20:45;32.47;;;18.20;;
36445;SDS011;22472;50.848;-1.216;2024-03-22T01:23:11;34.28;;;18.23;;
36445;SDS011;22472;50.848;-1.216;2024-03-22T01:25:38;36.28;;;18.20;;
36445;SDS011;22472;50.848;-1.216;2024-03-22T01:28:05;34.42;;;17.52;;
36445;SDS011;22472;50.848;-1.216;2024-03-22T01:30:32;33.42;;;18.17;;
36445;SDS011;22472;50.848;-1.216;2024-03-22T01:33:00;28.80;;;16.08;;
36445;SDS011;22472;50.848;-1.216;2024-03-22T01:35:28;34.17;;;17.15;;
36445;SDS011;22472;50.848;-1.216;2024-03-22T01:37:54;34.97;;;17.75;;
36445;SDS011;22472;50.848;-1.216;2024-03-22T01:40:21;35.05;;;18.08;;
36445;SDS011;22472;50.848;-1.216;2024-03-22T01:42:48;32.47;;;16.52;;
36445;SDS011;22472;50.848;-1.216;2024-03-22T01:45:15;33.13;;;16.48;;
36445;SDS011;22472;50.848;-1.216;2024-03-22T01:47:42;34.65;;;15.35;;
36445;SDS011;22472;50.848;-1.216;2024-03-22T01:50:10;31.50;;;14.85;;
36445;SDS011;22472;50.848;-1.216;2024-03-22T01:52:37;27.50;;;13.25;;
36445;SDS011;22472;50.848;-1.216;2024-03-22T01:55:05;31.23;;;14.50;;
36445;SDS011;22472;50.848;-1.216;2024-03-22T01:57:32;30.33;;;13.98;;
36445;SDS011;22472;50.848;-1.216;2024-03-22T02:00:00;27.17;;;13.35;;
36445;SDS011;22472;50.848;-1.216;2024-03-22T02:02:26;29.48;;;11.90;;
36445;SDS011;22472;50.848;-1.216;2024-03-22T02:04:53;24.77;;;12.02;;
36445;SDS011;22472;50.848;-1.216;2024-03-22T02:07:21;24.27;;;11.80;;
36445;SDS011;22472;50.848;-1.216;2024-03-22T02:09:48;23.90;;;10.48;;
36445;SDS011;22472;50.848;-1.216;2024-03-22T02:12:15;22.58;;;10.02;;
36445;SDS011;22472;50.848;-1.216;2024-03-22T02:14:42;26.83;;;10.20;;
36445;SDS011;22472;50.848;-1.216;2024-03-22T02:17:09;20.02;;;9.02;;
36445;SDS011;22472;50.848;-1.216;2024-03-22T02:19:36;24.13;;;8.18;;
36445;SDS011;22472;50.848;-1.216;2024-03-22T02:22:02;20.50;;;7.72;;
36445;SDS011;22472;50.848;-1.216;2024-03-22T02:24:31;18.95;;;7.25;;
36445;SDS011;22472;50.848;-1.216;2024-03-22T02:26:57;21.13;;;7.03;;
36445;SDS011;22472;50.848;-1.216;2024-03-22T02:29:24;17.27;;;5.95;;
36445;SDS011;22472;50.848;-1.216;2024-03-22T02:31:51;14.65;;;5.72;;
36445;SDS011;22472;50.848;-1.216;2024-03-22T02:34:18;20.95;;;6.60;;
36445;SDS011;22472;50.848;-1.216;2024-03-22T02:36:44;20.25;;;5.88;;
36445;SDS011;22472;50.848;-1.216;2024-03-22T02:39:11;22.00;;;6.10;;
36445;SDS011;22472;50.848;-1.216;2024-03-22T02:41:39;19.77;;;5.68;;
36445;SDS011;22472;50.848;-1.216;2024-03-22T02:44:06;16.73;;;5.35;;
36445;SDS011;22472;50.848;-1.216;2024-03-22T02:46:33;15.57;;;4.75;;
36445;SDS011;22472;50.848;-1.216;2024-03-22T02:49:00;25.45;;;5.10;;
36445;SDS011;22472;50.848;-1.216;2024-03-22T02:51:26;18.50;;;4.53;;
36445;SDS011;22472;50.848;-1.216;2024-03-22T02:53:54;13.75;;;4.55;;
36445;SDS011;22472;50.848;-1.216;2024-03-22T02:56:20;18.35;;;4.50;;
36445;SDS011;22472;50.848;-1.216;2024-03-22T02:58:50;18.15;;;4.38;;
36445;SDS011;22472;50.848;-1.216;2024-03-22T03:01:16;17.52;;;4.50;;
36445;SDS011;22472;50.848;-1.216;2024-03-22T03:06:28;11.02;;;3.45;;
36445;SDS011;22472;50.848;-1.216;2024-03-22T03:08:55;14.38;;;3.97;;
36445;SDS011;22472;50.848;-1.216;2024-03-22T03:11:22;17.92;;;3.85;;
36445;SDS011;22472;50.848;-1.216;2024-03-22T03:13:50;15.48;;;3.83;;
36445;SDS011;22472;50.848;-1.216;2024-03-22T03:16:16;14.50;;;3.38;;
36445;SDS011;22472;50.848;-1.216;2024-03-22T03:18:43;13.07;;;3.45;;
36445;SDS011;22472;50.848;-1.216;2024-03-22T03:21:10;13.88;;;3.35;;
36445;SDS011;22472;50.848;-1.216;2024-03-22T03:23:37;13.43;;;3.28;;
36445;SDS011;22472;50.848;-1.216;2024-03-22T03:26:03;17.60;;;2.92;;
36445;SDS011;22472;50.848;-1.216;2024-03-22T03:28:31;15.43;;;3.30;;
36445;SDS011;22472;50.848;-1.216;2024-03-22T03:30:58;18.67;;;3.10;;
36445;SDS011;22472;50.848;-1.216;2024-03-22T03:33:44;15.02;;;3.15;;
36445;SDS011;22472;50.848;-1.216;2024-03-22T03:36:10;16.58;;;2.65;;
36445;SDS011;22472;50.848;-1.216;2024-03-22T03:38:38;16.80;;;2.80;;
36445;SDS011;22472;50.848;-1.216;2024-03-22T03:41:04;13.27;;;2.60;;
36445;SDS011;22472;50.848;-1.216;2024-03-22T03:43:31;14.40;;;2.90;;
36445;SDS011;22472;50.848;-1.216;2024-03-22T03:45:59;17.67;;;2.95;;
36445;SDS011;22472;50.848;-1.216;2024-03-22T03:48:26;16.08;;;2.85;;
36445;SDS011;22472;50.848;-1.216;2024-03-22T03:50:52;15.07;;;2.80;;
36445;SDS011;22472;50.848;-1.216;2024-03-22T03:53:20;17.92;;;3.00;;
36445;SDS011;22472;50.848;-1.216;2024-03-22T03:55:46;14.15;;;2.83;;
36445;SDS011;22472;50.848;-1.216;2024-03-22T03:58:13;13.35;;;2.30;;
36445;SDS011;22472;50.848;-1.216;2024-03-22T04:00:39;15.75;;;2.92;;
36445;SDS011;22472;50.848;-1.216;2024-03-22T04:03:08;14.18;;;2.85;;
36445;SDS011;22472;50.848;-1.216;2024-03-22T04:05:34;13.85;;;2.55;;
36445;SDS011;22472;50.848;-1.216;2024-03-22T04:08:01;16.25;;;2.65;;
36445;SDS011;22472;50.848;-1.216;2024-03-22T04:10:28;19.40;;;3.00;;
36445;SDS011;22472;50.848;-1.216;2024-03-22T04:12:55;11.90;;;2.53;;
36445;SDS011;22472;50.848;-1.216;2024-03-22T04:15:21;16.88;;;3.13;;
36445;SDS011;22472;50.848;-1.216;2024-03-22T04:17:48;13.15;;;2.45;;
36445;SDS011;22472;50.848;-1.216;2024-03-22T04:20:16;12.57;;;2.40;;
36445;SDS011;22472;50.848;-1.216;2024-03-22T04:22:43;13.63;;;2.67;;
36445;SDS011;22472;50.848;-1.216;2024-03-22T04:25:09;13.60;;;2.42;;
36445;SDS011;22472;50.848;-1.216;2024-03-22T04:27:36;8.32;;;2.15;;
36445;SDS011;22472;50.848;-1.216;2024-03-22T04:30:03;10.40;;;2.38;;
36445;SDS011;22472;50.848;-1.216;2024-03-22T04:32:30;12.23;;;2.20;;
36445;SDS011;22472;50.848;-1.216;2024-03-22T04:34:56;6.97;;;1.98;;
36445;SDS011;22472;50.848;-1.216;2024-03-22T04:37:25;13.82;;;2.38;;
36445;SDS011;22472;50.848;-1.216;2024-03-22T04:39:52;14.98;;;2.03;;
36445;SDS011;22472;50.848;-1.216;2024-03-22T04:42:19;12.32;;;2.28;;
36445;SDS011;22472;50.848;-1.216;2024-03-22T04:44:46;8.52;;;1.67;;
36445;SDS011;22472;50.848;-1.216;2024-03-22T04:47:14;14.80;;;2.15;;
36445;SDS011;22472;50.848;-1.216;2024-03-22T04:49:40;9.70;;;2.15;;
36445;SDS011;22472;50.848;-1.216;2024-03-22T04:52:07;7.10;;;2.17;;
36445;SDS011;22472;50.848;-1.216;2024-03-22T04:54:36;8.38;;;1.92;;
36445;SDS011;22472;50.848;-1.216;2024-03-22T04:57:02;11.55;;;2.28;;
36445;SDS011;22472;50.848;-1.216;2024-03-22T04:59:29;11.32;;;2.20;;
36445;SDS011;22472;50.848;-1.216;2024-03-22T05:01:56;11.82;;;1.90;;
36445;SDS011;22472;50.848;-1.216;2024-03-22T05:04:23;13.38;;;2.30;;
36445;SDS011;22472;50.848;-1.216;2024-03-22T05:06:49;8.45;;;2.03;;
36445;SDS011;22472;50.848;-1.216;2024-03-22T05:09:16;11.35;;;2.03;;
36445;SDS011;22472;50.848;-1.216;2024-03-22T05:11:44;14.27;;;2.00;;
36445;SDS011;22472;50.848;-1.216;2024-03-22T05:14:15;13.02;;;2.17;;
36445;SDS011;22472;50.848;-1.216;2024-03-22T05:16:41;14.40;;;2.40;;
36445;SDS011;22472;50.848;-1.216;2024-03-22T05:19:08;12.48;;;2.08;;
36445;SDS011;22472;50.848;-1.216;2024-03-22T05:21:34;12.90;;;2.75;;
36445;SDS011;22472;50.848;-1.216;2024-03-22T05:24:02;11.93;;;2.45;;
36445;SDS011;22472;50.848;-1.216;2024-03-22T05:26:28;16.10;;;2.70;;
36445;SDS011;22472;50.848;-1.216;2024-03-22T05:28:58;12.63;;;2.50;;
36445;SDS011;22472;50.848;-1.216;2024-03-22T05:31:25;10.80;;;2.30;;
36445;SDS011;22472;50.848;-1.216;2024-03-22T05:33:52;12.75;;;2.70;;
36445;SDS011;22472;50.848;-1.216;2024-03-22T05:36:18;12.18;;;2.42;;
36445;SDS011;22472;50.848;-1.216;2024-03-22T05:38:46;12.70;;;2.90;;
36445;SDS011;22472;50.848;-1.216;2024-03-22T05:41:12;13.13;;;2.47;;
36445;SDS011;22472;50.848;-1.216;2024-03-22T05:43:39;17.02;;;3.55;;
36445;SDS011;22472;50.848;-1.216;2024-03-22T05:46:07;15.10;;;3.03;;
36445;SDS011;22472;50.848;-1.216;2024-03-22T05:48:34;18.17;;;3.45;;
36445;SDS011;22472;50.848;-1.216;2024-03-22T05:51:00;20.90;;;3.72;;
36445;SDS011;22472;50.848;-1.216;2024-03-22T05:53:27;23.50;;;4.18;;
36445;SDS011;22472;50.848;-1.216;2024-03-22T05:55:54;20.75;;;3.90;;
36445;SDS011;22472;50.848;-1.216;2024-03-22T05:58:21;18.85;;;3.80;;
36445;SDS011;22472;50.848;-1.216;2024-03-22T06:00:47;15.95;;;3.63;;
36445;SDS011;22472;50.848;-1.216;2024-03-22T06:03:16;22.77;;;4.13;;
36445;SDS011;22472;50.848;-1.216;2024-03-22T06:05:42;23.52;;;4.30;;
36445;SDS011;22472;50.848;-1.216;2024-03-22T06:08:09;21.42;;;4.07;;
36445;SDS011;22472;50.848;-1.216;2024-03-22T06:10:35;23.58;;;4.30;;
36445;SDS011;22472;50.848;-1.216;2024-03-22T06:13:03;21.50;;;4.63;;
36445;SDS011;22472;50.848;-1.216;2024-03-22T06:15:29;22.08;;;4.28;;
36445;SDS011;22472;50.848;-1.216;2024-03-22T06:17:56;20.17;;;4.70;;
36445;SDS011;22472;50.848;-1.216;2024-03-22T06:20:24;20.15;;;4.30;;
36445;SDS011;22472;50.848;-1.216;2024-03-22T06:22:51;21.00;;;4.32;;
36445;SDS011;22472;50.848;-1.216;2024-03-22T06:25:17;21.30;;;4.55;;
36445;SDS011;22472;50.848;-1.216;2024-03-22T06:27:44;22.40;;;4.55;;
36445;SDS011;22472;50.848;-1.216;2024-03-22T06:30:11;23.08;;;4.80;;
36445;SDS011;22472;50.848;-1.216;2024-03-22T06:32:38;19.08;;;4.50;;
36445;SDS011;22472;50.848;-1.216;2024-03-22T06:35:05;22.75;;;4.90;;
36445;SDS011;22472;50.848;-1.216;2024-03-22T06:37:34;19.00;;;5.00;;
36445;SDS011;22472;50.848;-1.216;2024-03-22T06:40:00;21.65;;;4.57;;
36445;SDS011;22472;50.848;-1.216;2024-03-22T06:42:27;18.33;;;4.50;;
36445;SDS011;22472;50.848;-1.216;2024-03-22T06:44:53;15.57;;;4.20;;
36445;SDS011;22472;50.848;-1.216;2024-03-22T06:47:21;21.52;;;4.82;;
36445;SDS011;22472;50.848;-1.216;2024-03-22T06:49:48;18.63;;;4.68;;
36445;SDS011;22472;50.848;-1.216;2024-03-22T06:52:16;15.07;;;4.35;;
36445;SDS011;22472;50.848;-1.216;2024-03-22T06:54:44;15.27;;;4.55;;
36445;SDS011;22472;50.848;-1.216;2024-03-22T06:57:12;15.18;;;4.70;;
36445;SDS011;22472;50.848;-1.216;2024-03-22T06:59:38;15.73;;;4.57;;
36445;SDS011;22472;50.848;-1.216;2024-03-22T07:02:05;19.50;;;5.03;;
36445;SDS011;22472;50.848;-1.216;2024-03-22T07:04:31;16.45;;;4.53;;
36445;SDS011;22472;50.848;-1.216;2024-03-22T07:06:58;17.02;;;4.30;;
36445;SDS011;22472;50.848;-1.216;2024-03-22T07:09:25;18.05;;;4.68;;
36445;SDS011;22472;50.848;-1.216;2024-03-22T07:11:55;18.63;;;4.90;;
36445;SDS011;22472;50.848;-1.216;2024-03-22T07:14:21;12.80;;;3.97;;
36445;SDS011;22472;50.848;-1.216;2024-03-22T07:16:50;19.08;;;4.60;;
36445;SDS011;22472;50.848;-1.216;2024-03-22T07:19:18;22.52;;;5.30;;
36445;SDS011;22472;50.848;-1.216;2024-03-22T07:21:46;15.35;;;4.70;;
36445;SDS011;22472;50.848;-1.216;2024-03-22T07:24:12;14.02;;;4.47;;
36445;SDS011;22472;50.848;-1.216;2024-03-22T07:26:40;15.55;;;4.65;;
36445;SDS011;22472;50.848;-1.216;2024-03-22T07:29:07;13.82;;;4.93;;
36445;SDS011;22472;50.848;-1.216;2024-03-22T07:31:34;19.40;;;5.13;;
36445;SDS011;22472;50.848;-1.216;2024-03-22T07:34:01;14.15;;;4.63;;
36445;SDS011;22472;50.848;-1.216;2024-03-22T07:36:30;17.08;;;4.70;;
36445;SDS011;22472;50.848;-1.216;2024-03-22T07:38:56;13.95;;;4.95;;
36445;SDS011;22472;50.848;-1.216;2024-03-22T07:41:23;18.17;;;4.93;;
36445;SDS011;22472;50.848;-1.216;2024-03-22T07:43:49;20.48;;;5.32;;
36445;SDS011;22472;50.848;-1.216;2024-03-22T07:46:18;18.35;;;6.07;;
36445;SDS011;22472;50.848;-1.216;2024-03-22T07:48:44;16.50;;;4.97;;
36445;SDS011;22472;50.848;-1.216;2024-03-22T07:51:11;19.65;;;5.70;;
36445;SDS011;22472;50.848;-1.216;2024-03-22T07:53:38;18.38;;;5.03;;
36445;SDS011;22472;50.848;-1.216;2024-03-22T07:56:05;16.33;;;5.32;;
36445;SDS011;22472;50.848;-1.216;2024-03-22T07:58:32;21.48;;;5.70;;
36445;SDS011;22472;50.848;-1.216;2024-03-22T08:00:59;19.00;;;5.88;;
36445;SDS011;22472;50.848;-1.216;2024-03-22T08:03:26;19.08;;;5.40;;
36445;SDS011;22472;50.848;-1.216;2024-03-22T08:05:54;19.83;;;5.70;;
36445;SDS011;22472;50.848;-1.216;2024-03-22T08:08:20;22.23;;;5.93;;
36445;SDS011;22472;50.848;-1.216;2024-03-22T08:10:47;16.80;;;6.32;;
36445;SDS011;22472;50.848;-1.216;2024-03-22T08:13:13;20.48;;;6.65;;
36445;SDS011;22472;50.848;-1.216;2024-03-22T08:15:41;17.35;;;6.18;;
36445;SDS011;22472;50.848;-1.216;2024-03-22T08:18:08;25.70;;;7.10;;
36445;SDS011;22472;50.848;-1.216;2024-03-22T08:20:37;23.60;;;6.88;;
36445;SDS011;22472;50.848;-1.216;2024-03-22T08:23:04;23.40;;;6.80;;
36445;SDS011;22472;50.848;-1.216;2024-03-22T08:25:31;22.15;;;7.13;;
36445;SDS011;22472;50.848;-1.216;2024-03-22T08:27:57;26.88;;;7.88;;
36445;SDS011;22472;50.848;-1.216;2024-03-22T08:30:25;26.45;;;7.47;;
36445;SDS011;22472;50.848;-1.216;2024-03-22T08:32:51;25.05;;;7.72;;
36445;SDS011;22472;50.848;-1.216;2024-03-22T08:35:18;24.63;;;8.02;;
36445;SDS011;22472;50.848;-1.216;2024-03-22T08:37:46;23.55;;;8.00;;
36445;SDS011;22472;50.848;-1.216;2024-03-22T08:40:13;22.73;;;7.03;;
36445;SDS011;22472;50.848;-1.216;2024-03-22T08:42:39;27.85;;;7.88;;
36445;SDS011;22472;50.848;-1.216;2024-03-22T08:45:07;25.83;;;7.63;;
36445;SDS011;22472;50.848;-1.216;2024-03-22T08:47:33;21.90;;;7.05;;
36445;SDS011;22472;50.848;-1.216;2024-03-22T08:50:00;18.63;;;7.15;;
36445;SDS011;22472;50.848;-1.216;2024-03-22T08:52:27;21.55;;;6.75;;
36445;SDS011;22472;50.848;-1.216;2024-03-22T08:54:56;23.83;;;7.15;;
36445;SDS011;22472;50.848;-1.216;2024-03-22T08:57:22;16.23;;;6.75;;
36445;SDS011;22472;50.848;-1.216;2024-03-22T08:59:50;19.67;;;6.38;;
36445;SDS011;22472;50.848;-1.216;2024-03-22T09:02:16;17.33;;;6.13;;
36445;SDS011;22472;50.848;-1.216;2024-03-22T09:04:43;24.45;;;7.50;;
36445;SDS011;22472;50.848;-1.216;2024-03-22T09:07:09;17.27;;;6.82;;
36445;SDS011;22472;50.848;-1.216;2024-03-22T09:09:37;19.83;;;6.13;;
36445;SDS011;22472;50.848;-1.216;2024-03-22T09:12:06;21.55;;;6.28;;
36445;SDS011;22472;50.848;-1.216;2024-03-22T09:14:33;19.70;;;6.20;;
36445;SDS011;22472;50.848;-1.216;2024-03-22T09:17:00;20.30;;;6.55;;
36445;SDS011;22472;50.848;-1.216;2024-03-22T09:19:27;16.25;;;5.65;;
36445;SDS011;22472;50.848;-1.216;2024-03-22T09:21:53;15.50;;;5.63;;
36445;SDS011;22472;50.848;-1.216;2024-03-22T09:24:20;16.98;;;6.00;;
36445;SDS011;22472;50.848;-1.216;2024-03-22T09:26:47;18.38;;;6.35;;
36445;SDS011;22472;50.848;-1.216;2024-03-22T09:29:15;17.48;;;6.25;;
36445;SDS011;22472;50.848;-1.216;2024-03-22T09:31:41;17.05;;;5.93;;
36445;SDS011;22472;50.848;-1.216;2024-03-22T09:34:09;17.50;;;5.75;;
36445;SDS011;22472;50.848;-1.216;2024-03-22T09:36:35;19.30;;;6.13;;
36445;SDS011;22472;50.848;-1.216;2024-03-22T09:39:03;14.07;;;6.32;;
36445;SDS011;22472;50.848;-1.216;2024-03-22T09:41:31;15.52;;;6.07;;
36445;SDS011;22472;50.848;-1.216;2024-03-22T09:43:59;17.80;;;6.07;;
36445;SDS011;22472;50.848;-1.216;2024-03-22T09:46:27;18.27;;;7.03;;
36445;SDS011;22472;50.848;-1.216;2024-03-22T09:48:54;17.30;;;7.13;;
36445;SDS011;22472;50.848;-1.216;2024-03-22T09:51:21;18.38;;;6.97;;
36445;SDS011;22472;50.848;-1.216;2024-03-22T09:53:48;20.20;;;6.97;;
36445;SDS011;22472;50.848;-1.216;2024-03-22T09:56:15;18.45;;;6.80;;
36445;SDS011;22472;50.848;-1.216;2024-03-22T09:58:42;16.63;;;7.10;;
36445;SDS011;22472;50.848;-1.216;2024-03-22T10:01:09;15.93;;;6.78;;
36445;SDS011;22472;50.848;-1.216;2024-03-22T10:03:38;24.48;;;6.97;;
36445;SDS011;22472;50.848;-1.216;2024-03-22T10:06:04;21.40;;;7.47;;
36445;SDS011;22472;50.848;-1.216;2024-03-22T10:08:31;19.20;;;7.43;;
36445;SDS011;22472;50.848;-1.216;2024-03-22T10:11:01;20.13;;;7.15;;
36445;SDS011;22472;50.848;-1.216;2024-03-22T10:13:28;15.70;;;6.38;;
36445;SDS011;22472;50.848;-1.216;2024-03-22T10:15:54;19.25;;;7.25;;
36445;SDS011;22472;50.848;-1.216;2024-03-22T10:18:21;21.95;;;7.38;;
36445;SDS011;22472;50.848;-1.216;2024-03-22T10:20:52;23.73;;;7.25;;
36445;SDS011;22472;50.848;-1.216;2024-03-22T10:23:25;20.30;;;7.45;;
36445;SDS011;22472;50.848;-1.216;2024-03-22T10:25:52;18.83;;;7.68;;
36445;SDS011;22472;50.848;-1.216;2024-03-22T10:28:19;22.00;;;7.00;;
36445;SDS011;22472;50.848;-1.216;2024-03-22T10:30:46;20.13;;;7.32;;
36445;SDS011;22472;50.848;-1.216;2024-03-22T10:33:14;16.50;;;6.78;;
36445;SDS011;22472;50.848;-1.216;2024-03-22T10:35:41;20.83;;;6.80;;
36445;SDS011;22472;50.848;-1.216;2024-03-22T10:38:12;16.63;;;6.45;;
36445;SDS011;22472;50.848;-1.216;2024-03-22T10:40:38;15.18;;;6.63;;
36445;SDS011;22472;50.848;-1.216;2024-03-22T10:43:06;17.48;;;6.43;;
36445;SDS011;22472;50.848;-1.216;2024-03-22T10:45:32;15.45;;;6.03;;
36445;SDS011;22472;50.848;-1.216;2024-03-22T10:48:00;14.65;;;5.93;;
36445;SDS011;22472;50.848;-1.216;2024-03-22T10:50:29;14.20;;;6.30;;
36445;SDS011;22472;50.848;-1.216;2024-03-22T10:52:57;15.73;;;5.05;;
36445;SDS011;22472;50.848;-1.216;2024-03-22T10:55:27;11.98;;;5.20;;
36445;SDS011;22472;50.848;-1.216;2024-03-22T10:57:55;7.25;;;3.10;;
36445;SDS011;22472;50.848;-1.216;2024-03-22T11:00:26;4.20;;;1.98;;
36445;SDS011;22472;50.848;-1.216;2024-03-22T11:02:54;2.40;;;1.08;;
36445;SDS011;22472;50.848;-1.216;2024-03-22T11:05:21;1.80;;;0.57;;
36445;SDS011;22472;50.848;-1.216;2024-03-22T11:07:58;2.65;;;0.43;;
36445;SDS011;22472;50.848;-1.216;2024-03-22T11:10:27;2.08;;;0.68;;
36445;SDS011;22472;50.848;-1.216;2024-03-22T11:13:00;2.38;;;0.90;;
36445;SDS011;22472;50.848;-1.216;2024-03-22T11:15:27;1.92;;;0.75;;
36445;SDS011;22472;50.848;-1.216;2024-03-22T11:17:55;1.80;;;0.70;;
36445;SDS011;22472;50.848;-1.216;2024-03-22T11:20:21;3.28;;;1.00;;
36445;SDS011;22472;50.848;-1.216;2024-03-22T11:22:48;2.25;;;1.40;;
36445;SDS011;22472;50.848;-1.216;2024-03-22T11:25:14;2.38;;;0.90;;
36445;SDS011;22472;50.848;-1.216;2024-03-22T11:27:43;2.47;;;0.90;;
36445;SDS011;22472;50.848;-1.216;2024-03-22T11:30:09;3.33;;;1.85;;
36445;SDS011;22472;50.848;-1.216;2024-03-22T11:32:37;3.10;;;0.90;;
36445;SDS011;22472;50.848;-1.216;2024-03-22T11:35:09;2.85;;;0.70;;
36445;SDS011;22472;50.848;-1.216;2024-03-22T11:37:36;1.92;;;0.55;;
36445;SDS011;22472;50.848;-1.216;2024-03-22T11:40:03;5.35;;;0.50;;
36445;SDS011;22472;50.848;-1.216;2024-03-22T11:42:31;2.65;;;0.30;;
36445;SDS011;22472;50.848;-1.216;2024-03-22T11:44:59;2.63;;;0.30;;
36445;SDS011;22472;50.848;-1.216;2024-03-22T11:47:26;2.30;;;0.40;;
36445;SDS011;22472;50.848;-1.216;2024-03-22T11:49:53;4.35;;;0.50;;
36445;SDS011;22472;50.848;-1.216;2024-03-22T11:52:23;4.78;;;0.50;;
36445;SDS011;22472;50.848;-1.216;2024-03-22T11:54:50;4.47;;;0.45;;
36445;SDS011;22472;50.848;-1.216;2024-03-22T11:57:18;5.13;;;0.50;;
36445;SDS011;22472;50.848;-1.216;2024-03-22T11:59:44;4.95;;;0.50;;
36445;SDS011;22472;50.848;-1.216;2024-03-22T12:02:13;5.57;;;0.70;;
36445;SDS011;22472;50.848;-1.216;2024-03-22T12:04:40;4.47;;;0.50;;
36445;SDS011;22472;50.848;-1.216;2024-03-22T12:07:09;8.15;;;1.20;;
36445;SDS011;22472;50.848;-1.216;2024-03-22T12:09:35;7.22;;;1.25;;
36445;SDS011;22472;50.848;-1.216;2024-03-22T12:12:03;8.05;;;1.13;;
36445;SDS011;22472;50.848;-1.216;2024-03-22T12:14:30;8.70;;;1.40;;
36445;SDS011;22472;50.848;-1.216;2024-03-22T12:16:57;9.52;;;1.27;;
36445;SDS011;22472;50.848;-1.216;2024-03-22T12:19:25;12.55;;;2.40;;
36445;SDS011;22472;50.848;-1.216;2024-03-22T12:21:52;7.55;;;1.35;;
36445;SDS011;22472;50.848;-1.216;2024-03-22T12:24:19;13.02;;;1.40;;
36445;SDS011;22472;50.848;-1.216;2024-03-22T12:26:46;11.48;;;1.38;;
36445;SDS011;22472;50.848;-1.216;2024-03-22T12:29:13;9.30;;;1.42;;
36445;SDS011;22472;50.848;-1.216;2024-03-22T12:31:40;6.75;;;1.17;;
36445;SDS011;22472;50.848;-1.216;2024-03-22T12:34:07;9.18;;;1.33;;
36445;SDS011;22472;50.848;-1.216;2024-03-22T12:36:35;12.05;;;1.58;;
36445;SDS011;22472;50.848;-1.216;2024-03-22T12:39:01;11.70;;;1.63;;
36445;SDS011;22472;50.848;-1.216;2024-03-22T12:41:29;11.63;;;1.42;;
36445;SDS011;22472;50.848;-1.216;2024-03-22T12:43:55;12.68;;;1.70;;
36445;SDS011;22472;50.848;-1.216;2024-03-22T12:46:23;7.72;;;1.30;;
36445;SDS011;22472;50.848;-1.216;2024-03-22T12:48:49;6.65;;;1.15;;
36445;SDS011;22472;50.848;-1.216;2024-03-22T12:51:16;10.25;;;1.40;;
36445;SDS011;22472;50.848;-1.216;2024-03-22T12:53:44;9.40;;;1.45;;
36445;SDS011;22472;50.848;-1.216;2024-03-22T12:56:11;11.00;;;1.65;;
36445;SDS011;22472;50.848;-1.216;2024-03-22T12:58:38;9.65;;;1.42;;
36445;SDS011;22472;50.848;-1.216;2024-03-22T13:01:05;6.97;;;1.45;;
36445;SDS011;22472;50.848;-1.216;2024-03-22T13:03:32;10.23;;;1.33;;
36445;SDS011;22472;50.848;-1.216;2024-03-22T13:05:59;18.25;;;2.15;;
36445;SDS011;22472;50.848;-1.216;2024-03-22T13:08:25;15.10;;;2.08;;
36445;SDS011;22472;50.848;-1.216;2024-03-22T13:10:54;13.27;;;2.65;;
36445;SDS011;22472;50.848;-1.216;2024-03-22T13:13:20;15.82;;;2.25;;
36445;SDS011;22472;50.848;-1.216;2024-03-22T13:15:47;13.52;;;1.85;;
36445;SDS011;22472;50.848;-1.216;2024-03-22T13:18:13;15.93;;;2.42;;
36445;SDS011;22472;50.848;-1.216;2024-03-22T13:20:41;12.70;;;1.90;;
36445;SDS011;22472;50.848;-1.216;2024-03-22T13:23:07;12.75;;;2.05;;
36445;SDS011;22472;50.848;-1.216;2024-03-22T13:25:34;10.70;;;1.77;;
36445;SDS011;22472;50.848;-1.216;2024-03-22T13:28:03;13.07;;;2.30;;
36445;SDS011;22472;50.848;-1.216;2024-03-22T13:30:31;17.63;;;3.15;;
36445;SDS011;22472;50.848;-1.216;2024-03-22T13:32:57;20.00;;;5.45;;
36445;SDS011;22472;50.848;-1.216;2024-03-22T13:35:25;12.43;;;3.38;;
36445;SDS011;22472;50.848;-1.216;2024-03-22T13:37:51;18.10;;;3.25;;
36445;SDS011;22472;50.848;-1.216;2024-03-22T13:40:18;11.35;;;1.80;;
36445;SDS011;22472;50.848;-1.216;2024-03-22T13:42:45;17.42;;;2.67;;
36445;SDS011;22472;50.848;-1.216;2024-03-22T13:45:13;21.65;;;4.43;;
36445;SDS011;22472;50.848;-1.216;2024-03-22T13:47:39;20.45;;;3.53;;
36445;SDS011;22472;50.848;-1.216;2024-03-22T13:50:07;17.52;;;2.97;;
36445;SDS011;22472;50.848;-1.216;2024-03-22T13:52:33;20.65;;;3.13;;
36445;SDS011;22472;50.848;-1.216;2024-03-22T13:55:01;18.48;;;2.85;;
36445;SDS011;22472;50.848;-1.216;2024-03-22T13:57:27;16.35;;;3.03;;
36445;SDS011;22472;50.848;-1.216;2024-03-22T13:59:54;18.15;;;3.35;;
36445;SDS011;22472;50.848;-1.216;2024-03-22T14:02:22;22.23;;;3.80;;
36445;SDS011;22472;50.848;-1.216;2024-03-22T14:04:49;19.38;;;3.00;;
36445;SDS011;22472;50.848;-1.216;2024-03-22T14:07:15;21.98;;;3.22;;
36445;SDS011;22472;50.848;-1.216;2024-03-22T14:09:42;12.52;;;2.35;;
36445;SDS011;22472;50.848;-1.216;2024-03-22T14:12:10;17.67;;;2.75;;
36445;SDS011;22472;50.848;-1.216;2024-03-22T14:14:37;18.25;;;3.00;;
36445;SDS011;22472;50.848;-1.216;2024-03-22T14:17:03;19.63;;;3.05;;
36445;SDS011;22472;50.848;-1.216;2024-03-22T14:19:32;22.02;;;3.28;;
36445;SDS011;22472;50.848;-1.216;2024-03-22T14:21:58;20.50;;;3.25;;
36445;SDS011;22472;50.848;-1.216;2024-03-22T14:24:26;19.98;;;4.25;;